Terminal Aerodrome Forecast
Issued by NWS

Home | Current Version | Previous Version | Text Only | Print | Product List | Glossary On
Versions: 1 2 3 4 5 6 7 8 9 10 11 12 13 14 15 16
000
FTUS44 KTSA 252300
TAFXNA
TAF
KXNA 252333Z 2600/2624 21003KT P6SM SKC
     FM260700 00000KT 4SM BR SKC
      TEMPO 2609/2613 1SM BR SCT002
     FM261400 18006KT P6SM SKC
     FM261900 19012G20KT P6SM SKC=

USA.gov is the U.S. government's official web portal to all federal, state and local government web resources and services.